createdAt,value
2023-02-28T00:01:29.486Z,1.75
2023-02-28T00:03:57.068Z,1.76
2023-02-28T00:06:23.885Z,1.82
2023-02-28T00:08:50.799Z,1.76
2023-02-28T00:11:18.856Z,1.66
2023-02-28T00:13:47.644Z,1.63
2023-02-28T00:16:18.219Z,1.76
2023-02-28T00:18:45.624Z,1.66
2023-02-28T00:21:12.593Z,1.71
2023-02-28T00:23:39.592Z,1.71
2023-02-28T00:26:06.801Z,1.65
2023-02-28T00:28:33.900Z,1.54
2023-02-28T00:31:01.183Z,1.48
2023-02-28T00:33:28.723Z,1.50
2023-02-28T00:36:04.997Z,1.58
2023-02-28T00:38:31.983Z,1.57
2023-02-28T00:40:59.602Z,1.68
2023-02-28T00:43:26.244Z,1.45
2023-02-28T00:45:52.932Z,1.45
2023-02-28T00:48:20.039Z,1.38
2023-02-28T00:50:50.767Z,1.35
2023-02-28T00:53:17.530Z,1.44
2023-02-28T00:55:44.379Z,1.44
2023-02-28T00:58:11.136Z,1.38
2023-02-28T01:00:37.750Z,1.28
2023-02-28T01:03:04.318Z,1.32
2023-02-28T01:05:30.838Z,1.31
2023-02-28T01:07:57.568Z,1.46
2023-02-28T01:10:24.221Z,1.36
2023-02-28T01:12:51.065Z,1.33
2023-02-28T01:15:17.747Z,1.43
2023-02-28T01:17:44.383Z,1.48
2023-02-28T01:20:11.654Z,1.40
2023-02-28T01:22:38.305Z,1.34
2023-02-28T01:25:05.342Z,1.31
2023-02-28T01:27:31.965Z,1.31
2023-02-28T01:29:58.621Z,1.38
2023-02-28T01:32:25.569Z,1.35
2023-02-28T01:34:54.023Z,1.53
2023-02-28T01:37:20.800Z,1.52
2023-02-28T01:39:47.375Z,1.42
2023-02-28T01:42:13.985Z,1.49
2023-02-28T01:45:05.191Z,1.42
2023-02-28T01:47:36.111Z,1.40
2023-02-28T01:50:07.397Z,1.35
2023-02-28T01:52:35.069Z,1.22
2023-02-28T01:55:04.270Z,1.38
2023-02-28T01:57:38.784Z,1.41
2023-02-28T02:00:10.202Z,1.16
2023-02-28T02:02:38.430Z,1.23
2023-02-28T02:05:08.472Z,1.27
2023-02-28T02:07:40.900Z,1.19
2023-02-28T02:10:19.567Z,1.19
2023-02-28T02:13:19.443Z,1.25
2023-02-28T02:16:23.217Z,1.33
2023-02-28T02:19:03.606Z,1.33
2023-02-28T02:21:54.877Z,1.23
2023-02-28T02:24:24.072Z,1.27
2023-02-28T02:27:05.200Z,1.21
2023-02-28T02:29:43.914Z,1.20
2023-02-28T02:32:13.406Z,1.26
2023-02-28T02:34:55.771Z,1.35
2023-02-28T02:37:32.454Z,1.39
2023-02-28T02:40:17.609Z,1.40
2023-02-28T02:42:44.227Z,1.38
2023-02-28T02:45:29.573Z,1.44
2023-02-28T02:48:00.030Z,1.36
2023-02-28T02:50:34.614Z,1.33
2023-02-28T02:53:03.139Z,1.32
2023-02-28T02:55:33.479Z,1.23
2023-02-28T02:58:07.645Z,1.30
2023-02-28T03:00:42.420Z,1.37
2023-02-28T03:03:12.771Z,1.35
2023-02-28T03:05:51.790Z,1.42
2023-02-28T03:08:18.498Z,1.47
2023-02-28T03:10:48.912Z,1.38
2023-02-28T03:13:42.938Z,1.39
2023-02-28T03:16:24.797Z,1.47
2023-02-28T03:19:10.114Z,1.39
2023-02-28T03:21:50.782Z,1.43
2023-02-28T03:24:27.085Z,1.36
2023-02-28T03:27:04.829Z,1.35
2023-02-28T03:29:39.030Z,1.34
2023-02-28T03:32:09.289Z,1.32
2023-02-28T03:34:42.802Z,1.29
2023-02-28T03:37:17.160Z,1.34
2023-02-28T03:39:51.333Z,1.41
2023-02-28T03:42:25.481Z,1.35
2023-02-28T03:45:02.649Z,1.37
2023-02-28T03:47:36.675Z,1.36
2023-02-28T03:50:15.897Z,1.38
2023-02-28T03:52:51.100Z,1.35
2023-02-28T03:55:18.869Z,1.32
2023-02-28T03:57:59.010Z,1.36
2023-02-28T04:00:36.782Z,1.36
2023-02-28T04:03:04.790Z,1.22
2023-02-28T04:05:32.483Z,1.24
2023-02-28T04:08:07.212Z,1.32
2023-02-28T04:10:33.898Z,1.26
2023-02-28T04:13:00.491Z,1.31
2023-02-28T04:15:28.446Z,1.24
2023-02-28T04:17:55.014Z,1.16
2023-02-28T04:20:21.608Z,1.18
2023-02-28T04:22:48.127Z,1.22
2023-02-28T04:25:14.727Z,1.13
2023-02-28T04:27:41.286Z,1.21
2023-02-28T04:30:08.616Z,1.17
2023-02-28T04:32:35.180Z,1.18
2023-02-28T04:35:01.774Z,1.25
2023-02-28T04:37:29.855Z,1.21
2023-02-28T04:39:56.400Z,1.18
2023-02-28T04:42:22.980Z,1.12
2023-02-28T04:44:49.572Z,1.20
2023-02-28T04:47:16.126Z,1.16
2023-02-28T04:49:42.688Z,1.15
2023-02-28T04:52:11.006Z,1.07
2023-02-28T04:54:39.816Z,1.08
2023-02-28T04:57:07.009Z,1.00
2023-02-28T04:59:34.506Z,1.00
2023-02-28T05:02:01.085Z,1.05
2023-02-28T05:04:27.759Z,1.00
2023-02-28T05:06:54.278Z,0.96
2023-02-28T05:09:20.792Z,0.97
2023-02-28T05:11:47.325Z,1.03
2023-02-28T05:14:15.133Z,0.89
2023-02-28T05:16:41.859Z,0.83
2023-02-28T05:19:08.544Z,0.85
2023-02-28T05:21:37.923Z,0.81
2023-02-28T05:24:07.755Z,0.84
2023-02-28T05:26:39.735Z,0.85
2023-02-28T05:29:06.810Z,0.79
2023-02-28T05:31:34.023Z,0.75
2023-02-28T05:34:00.671Z,0.75
2023-02-28T05:36:27.210Z,0.72
2023-02-28T05:38:53.880Z,0.74
2023-02-28T05:41:21.471Z,0.69
2023-02-28T05:43:48.986Z,0.69
2023-02-28T05:46:16.020Z,0.75
2023-02-28T05:48:46.715Z,0.65
2023-02-28T05:51:13.230Z,0.60
2023-02-28T05:53:39.784Z,0.56
2023-02-28T05:56:06.715Z,0.56
2023-02-28T05:58:33.550Z,0.52
2023-02-28T06:01:02.407Z,0.61
2023-02-28T06:03:29.154Z,0.57
2023-02-28T06:05:55.971Z,0.50
2023-02-28T06:08:22.559Z,0.46
2023-02-28T06:10:49.100Z,0.50
2023-02-28T06:13:16.264Z,0.47
2023-02-28T06:15:43.121Z,0.49
2023-02-28T06:18:09.725Z,0.47
2023-02-28T06:20:37.259Z,0.48
2023-02-28T06:23:04.358Z,0.45
2023-02-28T06:25:31.045Z,0.36
2023-02-28T06:27:57.985Z,0.32
2023-02-28T06:30:27.700Z,0.32
2023-02-28T06:32:55.519Z,0.44
2023-02-28T06:35:22.487Z,0.36
2023-02-28T06:37:49.230Z,0.49
2023-02-28T06:40:16.096Z,0.47
2023-02-28T06:42:42.865Z,0.42
2023-02-28T06:45:11.107Z,0.43
2023-02-28T06:47:39.425Z,0.35
2023-02-28T06:50:06.926Z,0.45
2023-02-28T06:52:33.930Z,0.38
2023-02-28T06:55:03.319Z,0.47
2023-02-28T06:57:32.025Z,0.47
2023-02-28T07:00:00.190Z,0.45
2023-02-28T07:02:27.770Z,0.47
2023-02-28T07:04:54.421Z,0.52
2023-02-28T07:07:21.362Z,0.50
2023-02-28T07:09:47.997Z,0.50
2023-02-28T07:12:14.678Z,0.44
2023-02-28T07:14:41.455Z,0.42
2023-02-28T07:17:09.545Z,0.39
2023-02-28T07:19:36.122Z,0.40
2023-02-28T07:22:03.787Z,0.52
2023-02-28T07:24:30.459Z,0.48
2023-02-28T07:26:57.308Z,0.57
2023-02-28T07:29:23.913Z,0.61
2023-02-28T07:31:54.083Z,0.55
2023-02-28T07:34:22.276Z,0.65
2023-02-28T07:36:49.098Z,0.67
2023-02-28T07:39:15.637Z,0.58
2023-02-28T07:41:44.607Z,0.64
2023-02-28T07:44:14.639Z,0.67
2023-02-28T07:46:41.292Z,0.69
2023-02-28T07:49:08.040Z,0.72
2023-02-28T07:51:34.629Z,0.69
2023-02-28T07:54:01.188Z,0.71
2023-02-28T07:56:28.388Z,0.72
2023-02-28T07:58:55.102Z,0.84
2023-02-28T08:01:21.821Z,0.82
2023-02-28T08:03:48.433Z,0.84
2023-02-28T08:06:21.447Z,0.85
2023-02-28T08:08:48.468Z,0.94
2023-02-28T08:11:17.085Z,1.13
2023-02-28T08:13:45.196Z,1.15
2023-02-28T08:16:16.517Z,1.08
2023-02-28T08:18:43.107Z,1.24
2023-02-28T08:21:11.131Z,1.23
2023-02-28T08:23:37.791Z,1.37
2023-02-28T08:26:04.877Z,1.38
2023-02-28T08:28:32.037Z,1.61
2023-02-28T08:30:58.835Z,1.33
2023-02-28T08:33:27.763Z,1.43
2023-02-28T08:35:55.862Z,1.76
2023-02-28T08:38:23.333Z,1.79
2023-02-28T08:40:50.117Z,1.98
2023-02-28T08:43:17.381Z,2.00
2023-02-28T08:45:44.137Z,2.05
2023-02-28T08:48:11.010Z,2.27
2023-02-28T08:50:37.602Z,2.28
2023-02-28T08:53:04.386Z,2.47
2023-02-28T08:55:30.939Z,2.42
2023-02-28T08:57:57.594Z,2.56
2023-02-28T09:00:24.494Z,2.43
2023-02-28T09:02:51.097Z,2.52
2023-02-28T09:05:18.409Z,2.73
2023-02-28T09:07:45.233Z,2.79
2023-02-28T09:10:12.116Z,2.46
2023-02-28T09:12:38.688Z,2.26
2023-02-28T09:15:06.329Z,2.20
2023-02-28T09:17:32.925Z,2.17
2023-02-28T09:19:59.473Z,2.16
2023-02-28T09:22:26.260Z,2.20
2023-02-28T09:24:52.816Z,2.37
2023-02-28T09:27:19.930Z,2.27
2023-02-28T09:29:46.638Z,2.39
2023-02-28T09:32:13.253Z,2.56
2023-02-28T09:34:39.990Z,2.44
2023-02-28T09:37:06.677Z,2.59
2023-02-28T09:39:33.423Z,2.64
2023-02-28T09:42:00.117Z,2.80
2023-02-28T09:44:40.452Z,2.86
2023-02-28T09:47:47.736Z,2.99
2023-02-28T09:50:56.592Z,2.85
2023-02-28T09:53:36.579Z,3.12
2023-02-28T09:56:08.768Z,3.25
2023-02-28T09:58:47.782Z,3.20
2023-02-28T10:01:33.602Z,3.19
2023-02-28T10:04:09.455Z,3.19
2023-02-28T10:06:50.800Z,3.32
2023-02-28T10:09:23.529Z,3.27
2023-02-28T10:11:53.729Z,3.39
2023-02-28T10:14:29.034Z,3.52
2023-02-28T10:17:00.269Z,3.62
2023-02-28T10:19:58.582Z,3.52
2023-02-28T10:22:53.085Z,3.49
2023-02-28T10:25:26.362Z,3.34
2023-02-28T10:28:14.303Z,3.39
2023-02-28T10:30:44.860Z,3.13
2023-02-28T10:33:38.108Z,3.27
2023-02-28T10:36:07.761Z,3.48
2023-02-28T10:38:37.432Z,3.46
2023-02-28T10:41:17.491Z,3.37
2023-02-28T10:43:46.261Z,3.59
2023-02-28T10:46:26.541Z,3.53
2023-02-28T10:49:13.398Z,3.67
2023-02-28T10:51:41.961Z,3.68
2023-02-28T10:54:40.089Z,3.74
2023-02-28T10:57:18.748Z,3.81
2023-02-28T10:59:45.721Z,3.67
2023-02-28T11:02:30.380Z,3.59
2023-02-28T11:04:57.031Z,3.54
2023-02-28T11:07:27.871Z,3.48
2023-02-28T11:09:59.165Z,3.50
2023-02-28T11:12:47.277Z,3.67
2023-02-28T11:15:33.434Z,3.53
2023-02-28T11:18:03.460Z,3.75
2023-02-28T11:20:33.735Z,3.71
2023-02-28T11:23:03.034Z,3.72
2023-02-28T11:25:36.197Z,3.74
2023-02-28T11:28:07.649Z,3.70
2023-02-28T11:30:40.192Z,3.57
2023-02-28T11:33:30.184Z,3.63
2023-02-28T11:36:05.292Z,3.82
2023-02-28T11:38:35.989Z,3.93
2023-02-28T11:41:25.853Z,3.88
2023-02-28T11:44:11.383Z,4.14
2023-02-28T11:46:44.041Z,4.19
2023-02-28T11:49:19.471Z,4.27
2023-02-28T11:51:50.836Z,4.46
2023-02-28T11:55:00.027Z,4.37
2023-02-28T11:57:40.670Z,4.64
2023-02-28T12:00:48.889Z,4.68
2023-02-28T12:03:18.140Z,4.40
2023-02-28T12:05:50.110Z,4.72
2023-02-28T12:08:35.555Z,4.50
2023-02-28T12:11:28.725Z,4.65
2023-02-28T12:13:58.346Z,5.01
2023-02-28T12:16:30.629Z,4.92
2023-02-28T12:19:16.220Z,4.93
2023-02-28T12:22:07.642Z,4.94
2023-02-28T12:24:56.389Z,4.79
2023-02-28T12:27:26.695Z,4.59
2023-02-28T12:30:08.274Z,4.60
2023-02-28T12:32:42.261Z,4.89
2023-02-28T12:35:17.683Z,5.09
2023-02-28T12:38:02.259Z,5.26
2023-02-28T12:40:43.000Z,5.16
2023-02-28T12:43:13.606Z,4.97
2023-02-28T12:45:52.193Z,5.34
2023-02-28T12:48:28.738Z,5.10
2023-02-28T12:50:55.429Z,5.52
2023-02-28T12:53:36.561Z,5.10
2023-02-28T12:56:42.301Z,5.31
2023-02-28T12:59:14.926Z,5.19
2023-02-28T13:01:48.597Z,4.93
2023-02-28T13:04:33.730Z,4.95
2023-02-28T13:07:06.168Z,4.83
2023-02-28T13:09:33.062Z,4.78
2023-02-28T13:12:00.321Z,4.69
2023-02-28T13:14:38.682Z,5.01
2023-02-28T13:17:08.542Z,5.17
2023-02-28T13:19:38.113Z,5.16
2023-02-28T13:22:06.856Z,4.99
2023-02-28T13:24:44.736Z,4.94
2023-02-28T13:27:25.596Z,5.00
2023-02-28T13:29:54.292Z,4.90
2023-02-28T13:32:31.134Z,4.81
2023-02-28T13:34:57.769Z,4.85
2023-02-28T13:37:25.487Z,4.57
2023-02-28T13:39:54.440Z,4.81
2023-02-28T13:42:38.306Z,5.11
2023-02-28T13:45:04.959Z,4.96
2023-02-28T13:47:57.151Z,5.06
2023-02-28T13:50:26.438Z,5.00
2023-02-28T13:53:25.081Z,4.96
2023-02-28T13:56:00.473Z,5.16
2023-02-28T13:58:42.502Z,5.13
2023-02-28T14:01:27.690Z,5.05
2023-02-28T14:04:19.403Z,5.11
2023-02-28T14:06:54.893Z,5.28
2023-02-28T14:09:40.640Z,5.23
2023-02-28T14:12:44.770Z,5.38
2023-02-28T14:15:47.090Z,5.18
2023-02-28T14:18:34.006Z,5.30
2023-02-28T14:21:09.762Z,5.07
2023-02-28T14:23:45.726Z,5.05
2023-02-28T14:26:30.327Z,5.16
2023-02-28T14:29:19.004Z,5.09
2023-02-28T14:32:07.239Z,4.92
2023-02-28T14:35:04.116Z,5.12
2023-02-28T14:37:37.463Z,5.19
2023-02-28T14:40:06.030Z,4.92
2023-02-28T14:42:34.362Z,4.78
2023-02-28T14:45:01.858Z,4.80
2023-02-28T14:47:37.031Z,4.97
2023-02-28T14:50:05.271Z,5.02
2023-02-28T14:52:33.693Z,4.96
2023-02-28T14:55:08.155Z,5.09
2023-02-28T14:57:41.077Z,5.09
2023-02-28T15:00:26.401Z,5.17
2023-02-28T15:02:54.626Z,5.07
2023-02-28T15:05:34.577Z,5.00
2023-02-28T15:08:17.152Z,4.93
2023-02-28T15:10:54.440Z,4.84
2023-02-28T15:13:21.760Z,5.04
2023-02-28T15:16:04.680Z,4.95
2023-02-28T15:18:46.295Z,4.95
2023-02-28T15:21:17.882Z,5.04
2023-02-28T15:23:50.709Z,5.16
2023-02-28T15:26:20.408Z,5.18
2023-02-28T15:28:47.361Z,4.92
2023-02-28T15:31:31.937Z,4.94
2023-02-28T15:34:08.784Z,4.62
2023-02-28T15:36:38.859Z,4.80
2023-02-28T15:39:24.220Z,4.88
2023-02-28T15:41:50.856Z,5.03
2023-02-28T15:44:34.325Z,5.18
2023-02-28T15:47:04.895Z,4.82
2023-02-28T15:49:59.824Z,4.77
2023-02-28T15:52:35.493Z,4.71
2023-02-28T15:55:21.483Z,4.57
2023-02-28T15:57:52.204Z,4.38
2023-02-28T16:00:24.328Z,4.47
2023-02-28T16:02:51.585Z,4.57
2023-02-28T16:05:35.288Z,4.57
2023-02-28T16:08:14.632Z,4.65
2023-02-28T16:10:41.392Z,4.50
2023-02-28T16:13:15.065Z,4.59
2023-02-28T16:15:44.286Z,4.35
2023-02-28T16:18:14.357Z,4.39
2023-02-28T16:20:42.489Z,4.43
2023-02-28T16:23:09.212Z,4.44
2023-02-28T16:25:45.092Z,4.27
2023-02-28T16:28:25.208Z,4.29
2023-02-28T16:30:55.084Z,4.39
2023-02-28T16:33:21.694Z,4.54
2023-02-28T16:35:48.302Z,4.45
2023-02-28T16:38:14.796Z,4.45
2023-02-28T16:40:42.241Z,4.46
2023-02-28T16:43:16.319Z,4.26
2023-02-28T16:45:43.457Z,4.28
2023-02-28T16:48:16.087Z,4.22
2023-02-28T16:50:45.515Z,4.27
2023-02-28T16:53:12.274Z,4.20
2023-02-28T16:55:38.991Z,4.09
2023-02-28T16:58:06.007Z,4.14
2023-02-28T17:00:33.904Z,4.25
2023-02-28T17:03:01.013Z,4.19
2023-02-28T17:05:34.115Z,4.19
2023-02-28T17:08:00.645Z,4.15
2023-02-28T17:10:27.860Z,4.04
2023-02-28T17:12:58.334Z,4.07
2023-02-28T17:15:30.661Z,4.05
2023-02-28T17:17:57.316Z,4.04
2023-02-28T17:20:23.856Z,4.02
2023-02-28T17:22:51.888Z,4.02
2023-02-28T17:25:18.834Z,4.02
2023-02-28T17:27:46.172Z,4.11
2023-02-28T17:30:25.434Z,4.11
2023-02-28T17:32:52.070Z,4.09
2023-02-28T17:35:18.859Z,4.04
2023-02-28T17:37:46.030Z,3.96
2023-02-28T17:40:19.541Z,3.93
2023-02-28T17:42:47.158Z,3.96
2023-02-28T17:45:15.867Z,4.02
2023-02-28T17:47:46.630Z,3.83
2023-02-28T17:50:19.119Z,3.83
2023-02-28T17:52:47.304Z,3.92
2023-02-28T17:55:14.164Z,3.85
2023-02-28T17:57:42.872Z,3.87
2023-02-28T18:00:13.613Z,3.85
2023-02-28T18:02:40.524Z,3.84
2023-02-28T18:05:07.837Z,3.81
2023-02-28T18:07:34.832Z,3.81
2023-02-28T18:10:01.362Z,3.79
2023-02-28T18:12:28.058Z,3.81
2023-02-28T18:14:54.610Z,3.81
2023-02-28T18:17:21.171Z,3.82
2023-02-28T18:19:47.945Z,3.97
2023-02-28T18:22:14.495Z,3.82
2023-02-28T18:24:41.060Z,3.80
2023-02-28T18:27:07.713Z,3.75
2023-02-28T18:29:34.485Z,3.78
2023-02-28T18:32:02.422Z,3.77
2023-02-28T18:34:30.730Z,3.85
2023-02-28T18:36:57.764Z,3.77
2023-02-28T18:39:24.530Z,3.74
2023-02-28T18:41:51.188Z,3.63
2023-02-28T18:44:20.856Z,3.65
2023-02-28T18:46:49.406Z,3.68
2023-02-28T18:49:16.538Z,3.63
2023-02-28T18:51:45.408Z,3.63
2023-02-28T18:54:13.663Z,3.68
2023-02-28T18:56:40.261Z,3.62
2023-02-28T18:59:07.018Z,3.71
2023-02-28T19:01:34.621Z,3.62
2023-02-28T19:04:03.603Z,3.53
2023-02-28T19:06:32.430Z,3.62
2023-02-28T19:09:03.852Z,3.64
2023-02-28T19:11:31.853Z,3.66
2023-02-28T19:13:58.829Z,3.48
2023-02-28T19:16:27.799Z,3.47
2023-02-28T19:18:55.242Z,3.48
2023-02-28T19:21:23.714Z,3.52
2023-02-28T19:23:51.005Z,3.55
2023-02-28T19:26:20.939Z,3.68
2023-02-28T19:28:47.857Z,3.58
2023-02-28T19:31:26.102Z,3.44
2023-02-28T19:33:53.289Z,3.39
2023-02-28T19:36:20.885Z,3.37
2023-02-28T19:38:48.041Z,3.38
2023-02-28T19:41:16.627Z,3.33
2023-02-28T19:43:43.484Z,3.49
2023-02-28T19:46:11.924Z,3.55
2023-02-28T19:48:39.048Z,3.52
2023-02-28T19:51:09.545Z,3.52
2023-02-28T19:53:37.459Z,3.37
2023-02-28T19:56:04.809Z,3.25
2023-02-28T19:58:32.224Z,3.31
2023-02-28T20:01:01.323Z,3.40
2023-02-28T20:03:27.925Z,3.29
2023-02-28T20:06:07.398Z,3.21
2023-02-28T20:08:34.378Z,3.23
2023-02-28T20:11:06.558Z,3.21
2023-02-28T20:13:33.696Z,3.19
2023-02-28T20:16:06.823Z,3.19
2023-02-28T20:18:33.820Z,3.16
2023-02-28T20:21:01.890Z,3.17
2023-02-28T20:23:29.412Z,3.10
2023-02-28T20:26:00.034Z,3.05
2023-02-28T20:28:27.059Z,3.04
2023-02-28T20:30:54.218Z,3.06
2023-02-28T20:33:20.858Z,3.10
2023-02-28T20:35:49.288Z,3.08
2023-02-28T20:38:15.911Z,3.19
2023-02-28T20:40:42.597Z,3.17
2023-02-28T20:43:09.168Z,3.16
2023-02-28T20:45:35.839Z,3.13
2023-02-28T20:48:02.568Z,3.12
2023-02-28T20:50:29.132Z,3.07
2023-02-28T20:52:56.538Z,3.06
2023-02-28T20:55:23.305Z,2.92
2023-02-28T20:57:50.216Z,2.91
2023-02-28T21:00:19.372Z,2.88
2023-02-28T21:02:46.261Z,2.81
2023-02-28T21:05:12.962Z,2.78
2023-02-28T21:07:39.512Z,2.83
2023-02-28T21:10:08.096Z,2.73
2023-02-28T21:12:35.767Z,2.74
2023-02-28T21:15:02.411Z,2.75
2023-02-28T21:17:29.426Z,2.69
2023-02-28T21:19:56.106Z,2.67
2023-02-28T21:22:22.871Z,2.67
2023-02-28T21:24:49.426Z,2.67
2023-02-28T21:27:16.499Z,2.65
2023-02-28T21:29:43.064Z,2.66
2023-02-28T21:32:09.836Z,2.65
2023-02-28T21:34:36.484Z,2.63
2023-02-28T21:37:03.830Z,2.61
2023-02-28T21:39:30.742Z,2.66
2023-02-28T21:42:04.045Z,2.74
2023-02-28T21:44:32.383Z,2.54
2023-02-28T21:47:02.527Z,2.61
2023-02-28T21:49:29.801Z,2.53
2023-02-28T21:51:56.746Z,2.53
2023-02-28T21:54:23.628Z,2.50
2023-02-28T21:56:50.923Z,2.42
2023-02-28T21:59:18.780Z,2.44
2023-02-28T22:01:46.417Z,2.38
2023-02-28T22:04:21.265Z,2.33
2023-02-28T22:06:51.631Z,2.25
2023-02-28T22:09:18.726Z,2.28
2023-02-28T22:11:45.589Z,2.30
2023-02-28T22:14:12.668Z,2.19
2023-02-28T22:16:50.601Z,2.18
2023-02-28T22:19:20.299Z,2.13
2023-02-28T22:21:47.678Z,2.09
2023-02-28T22:24:15.808Z,2.06
2023-02-28T22:26:42.451Z,2.09
2023-02-28T22:29:09.117Z,2.11
2023-02-28T22:31:36.214Z,2.08
2023-02-28T22:34:06.201Z,2.03
2023-02-28T22:36:33.036Z,2.02
2023-02-28T22:39:01.812Z,2.01
2023-02-28T22:41:28.915Z,2.01
2023-02-28T22:43:58.460Z,1.98
2023-02-28T22:46:26.486Z,1.94
2023-02-28T22:48:53.908Z,1.94
2023-02-28T22:51:25.453Z,1.93
2023-02-28T22:53:53.625Z,1.96
2023-02-28T22:56:21.764Z,1.98
2023-02-28T22:58:50.072Z,2.01
2023-02-28T23:01:17.502Z,2.02
2023-02-28T23:03:44.492Z,2.02
2023-02-28T23:06:35.058Z,2.05
2023-02-28T23:09:06.613Z,2.01
2023-02-28T23:11:40.538Z,2.10
2023-02-28T23:14:08.116Z,1.98
2023-02-28T23:16:38.404Z,1.99
2023-02-28T23:19:12.916Z,2.00
2023-02-28T23:21:40.374Z,1.90
2023-02-28T23:24:10.662Z,1.81
2023-02-28T23:26:43.899Z,1.78
2023-02-28T23:29:11.608Z,1.72
2023-02-28T23:31:38.382Z,1.72
2023-02-28T23:34:05.274Z,1.65
2023-02-28T23:36:32.228Z,1.67
2023-02-28T23:38:59.095Z,1.68
2023-02-28T23:41:26.410Z,1.61
2023-02-28T23:43:54.668Z,1.67
2023-02-28T23:46:22.366Z,1.58
2023-02-28T23:48:49.652Z,1.71
2023-02-28T23:51:19.215Z,1.66
2023-02-28T23:53:47.597Z,1.62
2023-02-28T23:56:17.223Z,1.65
2023-02-28T23:58:45.842Z,1.70
